Overview Statistics Trail Chart Weather Telemetry Raw packets
 

This is the latest recevied weather packets stored in our database for station/object PY2WOA-13. If no packets are shown the sender has not sent any weather packets the latest 10 day(s).

<< 10 11 12 13 14 15 16 >>
Time Temp. Humidity Pressure Rain* Wind** Luminosity Snow
1788149104 21.11° C 100% 1012.9 hPa - - - -
1788147303 21.11° C 100% 1013.6 hPa - - - -
1788145503 21.67° C 98% 1011.7 hPa - - - -
1788143704 21.67° C 100% 1011.7 hPa - - - -
1788141909 21.67° C 100% 1011.5 hPa - - - -
1788140104 21.67° C 100% 1013.4 hPa - - - -
1788138304 23.89° C 81% 1011.3 hPa - - - -
1788136504 23.89° C 81% 1011.4 hPa - - - -
1788134703 24.44° C 80% 1011.4 hPa - - - -
1788132903 24.44° C 83% 1010.7 hPa - - - -
1788131104 25° C 84% 1010.5 hPa - - - -
1788129304 26.11° C 75% 1010.2 hPa - - - -
1788127504 26.67° C 73% 1009.8 hPa - - - -
1788125704 27.22° C 74% 1008.8 hPa - - - -
1788123904 27.78° C 74% 1008 hPa - - - -
1788122104 28.33° C 70% 1008 hPa - - - -
1788120303 28.89° C 68% 1007.1 hPa - - - -
1788118519 28.33° C 69% 1007 hPa - - - -
1788116704 28.33° C 68% 1007.4 hPa - - - -
1788114904 26.67° C 79% 1007.9 hPa - - - -
1788113104 28.33° C 60% 1007.5 hPa - - - -
1788111304 30.56° C 59% 1007.1 hPa - - - -
1788109504 34.44° C 49% 1007 hPa - - - -
1788107703 36.67° C 36% 1007.4 hPa - - - -
1788105904 39.44° C 33% 1007.7 hPa - - - -

* Rain since midnight (hover to see other rain measurements)
** Current wind speed in m/s (hover to see current wind gust speed)